createdAt,value
2022-08-04T00:00:21.983Z,997.38
2022-08-04T00:01:22.030Z,997.40
2022-08-04T00:02:21.949Z,997.39
2022-08-04T00:03:21.948Z,997.42
2022-08-04T00:04:21.920Z,997.38
2022-08-04T00:05:21.909Z,997.38
2022-08-04T00:06:21.898Z,997.41
2022-08-04T00:07:44.327Z,997.42
2022-08-04T00:08:22.890Z,997.37
2022-08-04T00:09:22.820Z,997.36
2022-08-04T00:10:21.842Z,997.36
2022-08-04T00:11:21.842Z,997.38
2022-08-04T00:12:21.822Z,997.37
2022-08-04T00:13:22.822Z,997.39
2022-08-04T00:14:21.792Z,997.37
2022-08-04T00:15:21.784Z,997.35
2022-08-04T00:16:21.778Z,997.35
2022-08-04T00:17:21.869Z,997.37
2022-08-04T00:18:21.754Z,997.38
2022-08-04T00:19:22.693Z,997.35
2022-08-04T00:20:21.725Z,997.37
2022-08-04T00:21:21.705Z,997.38
2022-08-04T00:22:21.696Z,997.36
2022-08-04T00:23:21.676Z,997.35
2022-08-04T00:24:21.667Z,997.37
2022-08-04T00:25:21.647Z,997.34
2022-08-04T00:26:21.640Z,997.36
2022-08-04T00:27:21.749Z,997.36
2022-08-04T00:28:21.618Z,997.32
2022-08-04T00:29:21.598Z,997.32
2022-08-04T00:30:21.588Z,997.32
2022-08-04T00:31:33.189Z,997.34
2022-08-04T00:32:34.134Z,997.34
2022-08-04T00:33:22.550Z,997.34
2022-08-04T00:34:21.533Z,997.35
2022-08-04T00:35:21.520Z,997.34
2022-08-04T00:36:21.511Z,997.35
2022-08-04T00:37:21.681Z,997.32
2022-08-04T00:38:21.482Z,997.35
2022-08-04T00:39:21.518Z,997.37
2022-08-04T00:40:21.463Z,997.36
2022-08-04T00:41:21.443Z,997.37
2022-08-04T00:42:21.443Z,997.37
2022-08-04T00:43:21.413Z,997.35
2022-08-04T00:44:24.127Z,997.38
2022-08-04T00:45:21.384Z,997.35
2022-08-04T00:46:21.375Z,997.39
2022-08-04T00:47:21.509Z,997.36
2022-08-04T00:48:21.361Z,997.36
2022-08-04T00:49:21.335Z,997.38
2022-08-04T00:50:21.326Z,997.39
2022-08-04T00:51:21.306Z,997.36
2022-08-04T00:52:32.425Z,997.39
2022-08-04T00:53:22.315Z,997.36
2022-08-04T00:54:21.286Z,997.34
2022-08-04T00:55:21.258Z,997.38
2022-08-04T00:56:21.249Z,997.37
2022-08-04T00:57:33.725Z,997.38
2022-08-04T00:58:22.229Z,997.40
2022-08-04T00:59:21.209Z,997.34
2022-08-04T01:00:21.200Z,997.36
2022-08-04T01:01:28.243Z,997.38
2022-08-04T01:02:21.174Z,997.39
2022-08-04T01:03:21.842Z,997.37
2022-08-04T01:04:27.240Z,997.38
2022-08-04T01:05:21.130Z,997.38
2022-08-04T01:06:21.127Z,997.32
2022-08-04T01:07:21.300Z,997.30
2022-08-04T01:08:21.092Z,997.34
2022-08-04T01:09:21.798Z,997.31
2022-08-04T01:10:21.072Z,997.31
2022-08-04T01:11:21.090Z,997.32
2022-08-04T01:12:21.042Z,997.32
2022-08-04T01:13:21.022Z,997.40
2022-08-04T01:14:21.020Z,997.33
2022-08-04T01:15:21.002Z,997.35
2022-08-04T01:16:20.986Z,997.34
2022-08-04T01:17:21.273Z,997.33
2022-08-04T01:18:20.966Z,997.33
2022-08-04T01:19:20.944Z,997.38
2022-08-04T01:20:20.936Z,997.34
2022-08-04T01:21:20.926Z,997.37
2022-08-04T01:22:20.926Z,997.35
2022-08-04T01:23:20.897Z,997.34
2022-08-04T01:24:20.888Z,997.35
2022-08-04T01:25:22.661Z,997.32
2022-08-04T01:26:43.538Z,997.36
2022-08-04T01:27:22.541Z,997.34
2022-08-04T01:28:20.838Z,997.37
2022-08-04T01:29:20.816Z,997.35
2022-08-04T01:30:20.809Z,997.34
2022-08-04T01:31:20.829Z,997.32
2022-08-04T01:32:20.985Z,997.36
2022-08-04T01:33:21.763Z,997.33
2022-08-04T01:34:20.754Z,997.31
2022-08-04T01:35:21.904Z,997.31
2022-08-04T01:36:20.766Z,997.34
2022-08-04T01:37:20.890Z,997.35
2022-08-04T01:38:21.353Z,997.33
2022-08-04T01:39:20.768Z,997.34
2022-08-04T01:40:20.673Z,997.33
2022-08-04T01:41:32.194Z,997.30
2022-08-04T01:42:31.619Z,997.33
2022-08-04T01:43:21.633Z,997.32
2022-08-04T01:44:20.635Z,997.30
2022-08-04T01:45:20.605Z,997.32
2022-08-04T01:46:20.604Z,997.29
2022-08-04T01:47:20.735Z,997.28
2022-08-04T01:48:20.576Z,997.25
2022-08-04T01:49:20.557Z,997.24
2022-08-04T01:50:20.549Z,997.26
2022-08-04T01:51:20.576Z,997.30
2022-08-04T01:52:20.519Z,997.30
2022-08-04T01:53:20.505Z,997.26
2022-08-04T01:54:20.499Z,997.29
2022-08-04T01:55:20.478Z,997.30
2022-08-04T01:56:20.491Z,997.32
2022-08-04T01:57:37.627Z,997.28
2022-08-04T01:58:22.399Z,997.30
2022-08-04T01:59:20.429Z,997.32
2022-08-04T02:00:20.421Z,997.31
2022-08-04T02:01:20.478Z,997.33
2022-08-04T02:02:20.500Z,997.30
2022-08-04T02:03:20.384Z,997.32
2022-08-04T02:04:23.568Z,997.36
2022-08-04T02:05:20.352Z,997.34
2022-08-04T02:06:20.342Z,997.33
2022-08-04T02:07:21.452Z,997.34
2022-08-04T02:08:20.309Z,997.34
2022-08-04T02:09:20.293Z,997.34
2022-08-04T02:10:20.291Z,997.34
2022-08-04T02:11:20.274Z,997.36
2022-08-04T02:12:20.254Z,997.34
2022-08-04T02:13:20.245Z,997.33
2022-08-04T02:14:20.247Z,997.35
2022-08-04T02:15:20.215Z,997.35
2022-08-04T02:16:20.216Z,997.37
2022-08-04T02:17:20.360Z,997.38
2022-08-04T02:18:20.177Z,997.37
2022-08-04T02:19:20.166Z,997.35
2022-08-04T02:20:20.151Z,997.35
2022-08-04T02:21:20.147Z,997.32
2022-08-04T02:22:20.127Z,997.37
2022-08-04T02:23:20.118Z,997.34
2022-08-04T02:24:20.099Z,997.34
2022-08-04T02:25:20.086Z,997.33
2022-08-04T02:26:22.172Z,997.34
2022-08-04T02:27:20.190Z,997.33
2022-08-04T02:28:20.050Z,997.34
2022-08-04T02:29:20.030Z,997.36
2022-08-04T02:30:20.029Z,997.33
2022-08-04T02:31:20.025Z,997.30
2022-08-04T02:32:20.007Z,997.31
2022-08-04T02:33:19.984Z,997.30
2022-08-04T02:34:19.974Z,997.29
2022-08-04T02:35:19.953Z,997.24
2022-08-04T02:36:19.964Z,997.25
2022-08-04T02:37:20.120Z,997.24
2022-08-04T02:38:25.691Z,997.27
2022-08-04T02:39:20.967Z,997.29
2022-08-04T02:40:19.894Z,997.25
2022-08-04T02:41:19.884Z,997.20
2022-08-04T02:42:19.864Z,997.24
2022-08-04T02:43:19.846Z,997.21
2022-08-04T02:44:20.845Z,997.25
2022-08-04T02:45:19.824Z,997.23
2022-08-04T02:46:19.821Z,997.23
2022-08-04T02:47:20.133Z,997.23
2022-08-04T02:48:30.195Z,997.23
2022-08-04T02:49:20.767Z,997.23
2022-08-04T02:50:28.395Z,997.24
2022-08-04T02:51:20.752Z,997.22
2022-08-04T02:52:19.729Z,997.22
2022-08-04T02:53:19.708Z,997.22
2022-08-04T02:54:30.498Z,997.19
2022-08-04T02:55:20.700Z,997.20
2022-08-04T02:56:19.690Z,997.18
2022-08-04T02:57:19.948Z,997.21
2022-08-04T02:58:19.661Z,997.18
2022-08-04T02:59:19.641Z,997.17
2022-08-04T03:00:19.637Z,997.18
2022-08-04T03:01:19.696Z,997.18
2022-08-04T03:02:19.601Z,997.18
2022-08-04T03:03:19.581Z,997.18
2022-08-04T03:04:24.976Z,997.19
2022-08-04T03:05:20.553Z,997.19
2022-08-04T03:06:19.552Z,997.22
2022-08-04T03:07:19.682Z,997.24
2022-08-04T03:08:19.524Z,997.23
2022-08-04T03:09:19.504Z,997.21
2022-08-04T03:10:19.513Z,997.27
2022-08-04T03:11:19.485Z,997.26
2022-08-04T03:12:19.469Z,997.29
2022-08-04T03:13:19.447Z,997.25
2022-08-04T03:14:19.445Z,997.25
2022-08-04T03:15:19.425Z,997.24
2022-08-04T03:16:19.420Z,997.24
2022-08-04T03:17:19.576Z,997.30
2022-08-04T03:18:19.394Z,997.27
2022-08-04T03:19:20.326Z,997.33
2022-08-04T03:20:19.373Z,997.35
2022-08-04T03:21:19.351Z,997.35
2022-08-04T03:22:19.338Z,997.36
2022-08-04T03:23:19.309Z,997.33
2022-08-04T03:24:20.336Z,997.32
2022-08-04T03:25:19.290Z,997.37
2022-08-04T03:26:19.292Z,997.35
2022-08-04T03:27:19.379Z,997.38
2022-08-04T03:28:19.257Z,997.37
2022-08-04T03:29:36.176Z,997.36
2022-08-04T03:30:20.237Z,997.36
2022-08-04T03:31:19.221Z,997.34
2022-08-04T03:32:19.201Z,997.34
2022-08-04T03:33:19.182Z,997.32
2022-08-04T03:34:19.175Z,997.34
2022-08-04T03:35:22.531Z,997.29
2022-08-04T03:36:19.154Z,997.30
2022-08-04T03:37:19.291Z,997.34
2022-08-04T03:38:20.081Z,997.27
2022-08-04T03:39:19.139Z,997.31
2022-08-04T03:40:19.084Z,997.32
2022-08-04T03:41:20.525Z,997.32
2022-08-04T03:42:20.067Z,997.28
2022-08-04T03:43:57.545Z,997.26
2022-08-04T03:44:20.035Z,997.28
2022-08-04T03:45:24.063Z,997.27
2022-08-04T03:46:20.007Z,997.30
2022-08-04T03:47:19.151Z,997.28
2022-08-04T03:48:18.977Z,997.28
2022-08-04T03:49:18.968Z,997.28
2022-08-04T03:50:18.971Z,997.28
2022-08-04T03:51:34.119Z,997.28
2022-08-04T03:52:20.730Z,997.26
2022-08-04T03:53:18.919Z,997.29
2022-08-04T03:54:18.911Z,997.29
2022-08-04T03:55:18.889Z,997.32
2022-08-04T03:56:18.879Z,997.28
2022-08-04T03:57:18.996Z,997.31
2022-08-04T03:58:18.851Z,997.28
2022-08-04T03:59:18.834Z,997.29
2022-08-04T04:00:18.844Z,997.28
2022-08-04T04:01:18.816Z,997.32
2022-08-04T04:02:18.810Z,997.28
2022-08-04T04:03:28.632Z,997.32
2022-08-04T04:04:19.772Z,997.35
2022-08-04T04:05:18.753Z,997.33
2022-08-04T04:06:18.744Z,997.30
2022-08-04T04:07:19.652Z,997.32
2022-08-04T04:08:19.715Z,997.33
2022-08-04T04:09:20.696Z,997.34
2022-08-04T04:10:19.047Z,997.34
2022-08-04T04:11:18.705Z,997.36
2022-08-04T04:12:18.665Z,997.34
2022-08-04T04:13:18.656Z,997.32
2022-08-04T04:14:18.637Z,997.31
2022-08-04T04:15:18.644Z,997.28
2022-08-04T04:16:18.642Z,997.26
2022-08-04T04:17:18.600Z,997.23
2022-08-04T04:18:19.532Z,997.22
2022-08-04T04:19:18.574Z,997.21
2022-08-04T04:20:18.568Z,997.20
2022-08-04T04:21:18.538Z,997.24
2022-08-04T04:22:18.528Z,997.22
2022-08-04T04:23:18.551Z,997.24
2022-08-04T04:24:18.500Z,997.24
2022-08-04T04:25:18.499Z,997.18
2022-08-04T04:26:18.481Z,997.17
2022-08-04T04:27:18.470Z,997.16
2022-08-04T04:28:45.274Z,997.20
2022-08-04T04:29:19.434Z,997.21
2022-08-04T04:30:18.439Z,997.20
2022-08-04T04:31:18.402Z,997.20
2022-08-04T04:32:18.401Z,997.17
2022-08-04T04:33:18.372Z,997.20
2022-08-04T04:34:18.382Z,997.21
2022-08-04T04:35:18.363Z,997.24
2022-08-04T04:36:18.343Z,997.29
2022-08-04T04:37:18.475Z,997.27
2022-08-04T04:38:19.274Z,997.28
2022-08-04T04:39:18.368Z,997.28
2022-08-04T04:40:19.252Z,997.30
2022-08-04T04:41:18.275Z,997.29
2022-08-04T04:42:18.265Z,997.26
2022-08-04T04:43:18.257Z,997.25
2022-08-04T04:44:18.237Z,997.28
2022-08-04T04:45:18.236Z,997.19
2022-08-04T04:46:18.208Z,997.27
2022-08-04T04:47:18.206Z,997.28
2022-08-04T04:48:20.128Z,997.25
2022-08-04T04:49:18.178Z,997.23
2022-08-04T04:50:19.119Z,997.30
2022-08-04T04:51:18.168Z,997.30
2022-08-04T04:52:18.139Z,997.31
2022-08-04T04:53:18.120Z,997.31
2022-08-04T04:54:18.100Z,997.30
2022-08-04T04:55:18.123Z,997.30
2022-08-04T04:56:19.038Z,997.23
2022-08-04T04:57:18.072Z,997.26
2022-08-04T04:58:18.061Z,997.26
2022-08-04T04:59:18.051Z,997.28
2022-08-04T05:00:18.033Z,997.30
2022-08-04T05:01:18.022Z,997.32
2022-08-04T05:02:18.003Z,997.32
2022-08-04T05:03:18.946Z,997.32
2022-08-04T05:04:17.993Z,997.31
2022-08-04T05:05:17.974Z,997.31
2022-08-04T05:06:17.956Z,997.32
2022-08-04T05:07:17.944Z,997.32
2022-08-04T05:08:45.397Z,997.31
2022-08-04T05:09:18.925Z,997.32
2022-08-04T05:10:18.856Z,997.32
2022-08-04T05:11:17.911Z,997.33
2022-08-04T05:12:44.895Z,997.33
2022-08-04T05:14:36.107Z,997.35
2022-08-04T05:14:36.804Z,997.33
2022-08-04T05:15:22.623Z,997.36
2022-08-04T05:16:19.768Z,997.34
2022-08-04T05:17:17.811Z,997.36
2022-08-04T05:18:17.792Z,997.36
2022-08-04T05:19:17.786Z,997.31
2022-08-04T05:20:17.775Z,997.34
2022-08-04T05:21:17.759Z,997.40
2022-08-04T05:22:17.740Z,997.41
2022-08-04T05:23:17.740Z,997.38
2022-08-04T05:24:17.720Z,997.40
2022-08-04T05:25:18.685Z,997.41
2022-08-04T05:26:17.691Z,997.42
2022-08-04T05:27:17.682Z,997.39
2022-08-04T05:28:17.663Z,997.43
2022-08-04T05:29:18.629Z,997.41
2022-08-04T05:30:18.595Z,997.36
2022-08-04T05:31:17.624Z,997.35
2022-08-04T05:32:17.614Z,997.39
2022-08-04T05:33:17.605Z,997.41
2022-08-04T05:34:17.589Z,997.40
2022-08-04T05:35:50.433Z,997.41
2022-08-04T05:36:32.728Z,997.39
2022-08-04T05:37:19.619Z,997.38
2022-08-04T05:38:17.533Z,997.37
2022-08-04T05:39:17.551Z,997.36
2022-08-04T05:40:17.529Z,997.31
2022-08-04T05:41:17.496Z,997.28
2022-08-04T05:42:17.496Z,997.26
2022-08-04T05:43:17.478Z,997.28
2022-08-04T05:44:17.455Z,997.26
2022-08-04T05:45:17.450Z,997.29
2022-08-04T05:46:17.428Z,997.30
2022-08-04T05:47:17.419Z,997.34
2022-08-04T05:48:17.399Z,997.32
2022-08-04T05:49:19.602Z,997.28
2022-08-04T05:50:17.392Z,997.29
2022-08-04T05:51:17.371Z,997.31
2022-08-04T05:52:17.351Z,997.34
2022-08-04T05:53:17.342Z,997.33
2022-08-04T05:54:17.322Z,997.29
2022-08-04T05:55:48.886Z,997.34
2022-08-04T05:56:18.294Z,997.30
2022-08-04T05:57:18.243Z,997.30
2022-08-04T05:58:17.278Z,997.29
2022-08-04T05:59:17.276Z,997.30
2022-08-04T06:00:38.940Z,997.30
2022-08-04T06:01:18.321Z,997.31
2022-08-04T06:02:17.292Z,997.33
2022-08-04T06:03:17.217Z,997.33
2022-08-04T06:04:17.204Z,997.31
2022-08-04T06:05:17.186Z,997.34
2022-08-04T06:06:17.166Z,997.31
2022-08-04T06:07:17.157Z,997.36
2022-08-04T06:08:17.137Z,997.35
2022-08-04T06:09:17.137Z,997.35
2022-08-04T06:10:17.119Z,997.36
2022-08-04T06:11:17.109Z,997.40
2022-08-04T06:12:17.095Z,997.41
2022-08-04T06:13:47.508Z,997.42
2022-08-04T06:14:18.071Z,997.39
2022-08-04T06:15:17.060Z,997.37
2022-08-04T06:16:29.029Z,997.39
2022-08-04T06:18:33.490Z,997.40
2022-08-04T06:18:35.355Z,997.37
2022-08-04T06:19:59.746Z,997.36
2022-08-04T06:20:22.111Z,997.38
2022-08-04T06:21:17.983Z,997.40
2022-08-04T06:22:16.973Z,997.36
2022-08-04T06:23:16.962Z,997.29
2022-08-04T06:24:16.943Z,997.36
2022-08-04T06:25:16.972Z,997.34
2022-08-04T06:26:16.914Z,997.34
2022-08-04T06:27:16.897Z,997.35
2022-08-04T06:28:16.897Z,997.40
2022-08-04T06:29:16.876Z,997.37
2022-08-04T06:30:16.857Z,997.39
2022-08-04T06:32:28.202Z,997.37
2022-08-04T06:32:29.490Z,997.36
2022-08-04T06:33:17.837Z,997.36
2022-08-04T06:34:16.798Z,997.38
2022-08-04T06:35:16.808Z,997.41
2022-08-04T06:36:16.799Z,997.41
2022-08-04T06:37:40.875Z,997.40
2022-08-04T06:38:17.760Z,997.38
2022-08-04T06:39:17.435Z,997.38
2022-08-04T06:40:32.022Z,997.36
2022-08-04T06:41:17.718Z,997.41
2022-08-04T06:42:22.262Z,997.44
2022-08-04T06:43:17.704Z,997.44
2022-08-04T06:44:17.632Z,997.40
2022-08-04T06:45:16.666Z,997.42
2022-08-04T06:46:16.643Z,997.39
2022-08-04T06:47:16.644Z,997.42
2022-08-04T06:48:16.633Z,997.40
2022-08-04T06:49:16.615Z,997.40
2022-08-04T06:51:25.115Z,997.42
2022-08-04T06:51:28.746Z,997.42
2022-08-04T06:52:17.574Z,997.40
2022-08-04T06:53:16.580Z,997.45
2022-08-04T06:54:16.546Z,997.43
2022-08-04T06:55:16.535Z,997.42
2022-08-04T06:56:16.516Z,997.42
2022-08-04T06:57:16.508Z,997.39
2022-08-04T06:58:16.507Z,997.40
2022-08-04T06:59:16.493Z,997.36
2022-08-04T07:00:16.468Z,997.38
2022-08-04T07:01:16.506Z,997.40
2022-08-04T07:02:16.440Z,997.38
2022-08-04T07:03:16.439Z,997.36
2022-08-04T07:04:16.409Z,997.38
2022-08-04T07:05:16.411Z,997.36
2022-08-04T07:06:16.401Z,997.40
2022-08-04T07:07:16.392Z,997.36
2022-08-04T07:08:16.372Z,997.40
2022-08-04T07:09:16.353Z,997.44
2022-08-04T07:10:18.011Z,997.41
2022-08-04T07:11:17.333Z,997.37
2022-08-04T07:12:16.314Z,997.39
2022-08-04T07:13:16.312Z,997.36
2022-08-04T07:14:16.285Z,997.39
2022-08-04T07:15:16.277Z,997.38
2022-08-04T07:16:16.254Z,997.38
2022-08-04T07:17:16.255Z,997.35
2022-08-04T07:18:16.251Z,997.39
2022-08-04T07:19:19.011Z,997.36
2022-08-04T07:20:16.207Z,997.36
2022-08-04T07:21:17.208Z,997.33
2022-08-04T07:22:24.953Z,997.37
2022-08-04T07:23:17.201Z,997.34
2022-08-04T07:24:16.160Z,997.32
2022-08-04T07:25:16.152Z,997.38
2022-08-04T07:26:16.128Z,997.29
2022-08-04T07:27:16.120Z,997.29
2022-08-04T07:28:16.120Z,997.35
2022-08-04T07:29:16.103Z,997.26
2022-08-04T07:30:18.835Z,997.27
2022-08-04T07:31:34.407Z,997.27
2022-08-04T07:32:17.061Z,997.27
2022-08-04T07:33:16.853Z,997.27
2022-08-04T07:34:22.150Z,997.25
2022-08-04T07:36:03.649Z,997.24
2022-08-04T07:36:17.015Z,997.29
2022-08-04T07:37:15.993Z,997.25
2022-08-04T07:38:16.191Z,997.25
2022-08-04T07:39:26.386Z,997.24
2022-08-04T07:40:16.956Z,997.22
2022-08-04T07:42:16.925Z,997.23
2022-08-04T07:43:15.925Z,997.23
2022-08-04T07:44:15.910Z,997.25
2022-08-04T07:45:15.887Z,997.19
2022-08-04T07:46:15.879Z,997.18
2022-08-04T07:47:15.868Z,997.18
2022-08-04T07:48:15.860Z,997.16
2022-08-04T07:49:56.948Z,997.16
2022-08-04T07:50:16.819Z,997.17
2022-08-04T07:51:15.809Z,997.14
2022-08-04T07:52:15.799Z,997.17
2022-08-04T07:53:55.195Z,997.14
2022-08-04T07:54:16.768Z,997.17
2022-08-04T07:55:15.774Z,997.15
2022-08-04T07:56:15.742Z,997.14
2022-08-04T07:57:19.706Z,997.09
2022-08-04T07:58:16.723Z,997.13
2022-08-04T07:59:15.743Z,997.12
2022-08-04T08:00:15.691Z,997.10
2022-08-04T08:01:15.687Z,997.05
2022-08-04T08:02:15.685Z,997.04
2022-08-04T08:03:15.724Z,997.10
2022-08-04T08:04:16.635Z,997.09
2022-08-04T08:05:15.635Z,997.10
2022-08-04T08:06:17.380Z,997.06
2022-08-04T08:07:16.609Z,997.08
2022-08-04T08:08:15.597Z,997.09
2022-08-04T08:09:15.579Z,997.08
2022-08-04T08:10:15.570Z,997.03
2022-08-04T08:11:16.351Z,997.01
2022-08-04T08:12:35.880Z,997.04
2022-08-04T08:13:16.532Z,997.03
2022-08-04T08:14:15.509Z,997.00
2022-08-04T08:15:15.929Z,997.06
2022-08-04T08:16:15.491Z,997.05
2022-08-04T08:17:16.472Z,997.06
2022-08-04T08:18:15.461Z,997.06
2022-08-04T08:19:16.408Z,997.08
2022-08-04T08:20:15.443Z,997.03
2022-08-04T08:21:16.423Z,997.06
2022-08-04T08:22:15.413Z,997.05
2022-08-04T08:23:15.414Z,997.06
2022-08-04T08:24:15.395Z,997.08
2022-08-04T08:25:15.384Z,997.08
2022-08-04T08:26:15.368Z,997.08
2022-08-04T08:27:15.347Z,997.04
2022-08-04T08:28:15.338Z,996.95
2022-08-04T08:29:15.332Z,997.01
2022-08-04T08:30:15.298Z,996.99
2022-08-04T08:31:15.309Z,996.98
2022-08-04T08:32:15.278Z,996.98
2022-08-04T08:33:15.280Z,996.98
2022-08-04T08:34:15.249Z,996.99
2022-08-04T08:35:16.250Z,997.01
2022-08-04T08:36:15.231Z,997.02
2022-08-04T08:37:15.224Z,996.98
2022-08-04T08:38:15.273Z,997.01
2022-08-04T08:39:15.239Z,996.99
2022-08-04T08:40:15.181Z,997.01
2022-08-04T08:41:15.174Z,997.01
2022-08-04T08:42:15.149Z,997.03
2022-08-04T08:44:05.092Z,997.04
2022-08-04T08:44:29.821Z,997.06
2022-08-04T08:45:18.028Z,997.07
2022-08-04T08:46:15.094Z,997.03
2022-08-04T08:47:15.086Z,997.02
2022-08-04T08:48:15.095Z,997.03
2022-08-04T08:50:02.020Z,997.05
2022-08-04T08:50:16.047Z,997.06
2022-08-04T08:51:15.036Z,997.09
2022-08-04T08:52:15.027Z,997.05
2022-08-04T08:53:16.027Z,997.04
2022-08-04T08:54:15.958Z,997.05
2022-08-04T08:55:14.996Z,997.03
2022-08-04T08:56:14.989Z,996.98
2022-08-04T08:57:14.969Z,997.02
2022-08-04T08:58:14.981Z,997.01
2022-08-04T08:59:15.308Z,996.98
2022-08-04T09:00:15.723Z,997.03
2022-08-04T09:01:14.950Z,997.01
2022-08-04T09:02:14.937Z,997.03
2022-08-04T09:03:14.911Z,997.04
2022-08-04T09:04:23.835Z,997.05
2022-08-04T09:05:15.854Z,997.03
2022-08-04T09:06:15.823Z,997.06
2022-08-04T09:07:14.836Z,997.02
2022-08-04T09:08:15.774Z,997.04
2022-08-04T09:09:14.804Z,997.11
2022-08-04T09:10:14.795Z,997.04
2022-08-04T09:11:14.775Z,996.98
2022-08-04T09:12:14.777Z,997.02
2022-08-04T09:13:14.768Z,997.00
2022-08-04T09:14:14.747Z,997.03
2022-08-04T09:15:14.733Z,996.95
2022-08-04T09:16:14.725Z,997.03
2022-08-04T09:17:14.719Z,997.02
2022-08-04T09:18:14.713Z,997.03
2022-08-04T09:19:23.032Z,996.99
2022-08-04T09:20:15.680Z,997.01
2022-08-04T09:21:14.660Z,997.01
2022-08-04T09:22:14.641Z,997.05
2022-08-04T09:23:14.641Z,996.99
2022-08-04T09:24:35.442Z,997.07
2022-08-04T09:25:15.613Z,997.04
2022-08-04T09:26:14.605Z,996.98
2022-08-04T09:27:14.583Z,996.99
2022-08-04T09:28:17.393Z,996.98
2022-08-04T09:29:15.565Z,997.01
2022-08-04T09:30:14.557Z,997.00
2022-08-04T09:31:14.535Z,996.95
2022-08-04T09:32:14.527Z,996.99
2022-08-04T09:33:16.252Z,996.95
2022-08-04T09:34:14.498Z,996.98
2022-08-04T09:35:15.948Z,997.00
2022-08-04T09:36:14.477Z,997.01
2022-08-04T09:37:15.469Z,996.97
2022-08-04T09:38:15.398Z,996.97
2022-08-04T09:39:14.460Z,996.95
2022-08-04T09:40:25.637Z,996.95
2022-08-04T09:41:20.843Z,996.92
2022-08-04T09:42:16.276Z,996.94
2022-08-04T09:43:15.342Z,996.91
2022-08-04T09:44:50.826Z,996.92
2022-08-04T09:45:15.591Z,996.91
2022-08-04T09:46:15.344Z,996.95
2022-08-04T09:47:14.342Z,996.97
2022-08-04T09:48:15.280Z,996.94
2022-08-04T09:49:14.315Z,996.90
2022-08-04T09:50:14.305Z,996.95
2022-08-04T09:51:14.282Z,996.90
2022-08-04T09:52:15.089Z,996.91
2022-08-04T09:53:14.262Z,996.88
2022-08-04T09:54:30.588Z,996.88
2022-08-04T09:55:15.229Z,996.86
2022-08-04T09:56:14.228Z,996.83
2022-08-04T09:57:14.230Z,996.87
2022-08-04T09:58:15.149Z,996.83
2022-08-04T09:59:14.246Z,996.86
2022-08-04T10:00:14.172Z,996.88
2022-08-04T10:01:14.150Z,996.86
2022-08-04T10:02:14.215Z,996.84
2022-08-04T10:03:19.617Z,996.76
2022-08-04T10:04:15.125Z,996.78
2022-08-04T10:05:14.124Z,996.72
2022-08-04T10:06:14.104Z,996.78
2022-08-04T10:07:14.152Z,996.80
2022-08-04T10:08:16.456Z,996.74
2022-08-04T10:09:14.058Z,996.78
2022-08-04T10:10:14.112Z,996.81
2022-08-04T10:11:14.036Z,996.82
2022-08-04T10:12:14.046Z,996.80
2022-08-04T10:13:14.957Z,996.78
2022-08-04T10:14:14.023Z,996.78
2022-08-04T10:15:13.989Z,996.78
2022-08-04T10:16:13.978Z,996.77
2022-08-04T10:17:14.022Z,996.70
2022-08-04T10:18:13.949Z,996.69
2022-08-04T10:19:13.939Z,996.69
2022-08-04T10:20:13.941Z,996.72
2022-08-04T10:21:15.804Z,996.66
2022-08-04T10:22:28.219Z,996.65
2022-08-04T10:23:14.900Z,996.62
2022-08-04T10:24:13.881Z,996.61
2022-08-04T10:26:02.901Z,996.61
2022-08-04T10:26:14.863Z,996.63
2022-08-04T10:27:13.912Z,996.64
2022-08-04T10:28:13.834Z,996.64
2022-08-04T10:29:13.815Z,996.58
2022-08-04T10:30:13.909Z,996.51
2022-08-04T10:31:13.799Z,996.55
2022-08-04T10:32:13.796Z,996.54
2022-08-04T10:33:13.769Z,996.58
2022-08-04T10:34:13.768Z,996.56
2022-08-04T10:35:14.689Z,996.55
2022-08-04T10:36:13.755Z,996.52
2022-08-04T10:37:13.826Z,996.49
2022-08-04T10:38:13.723Z,996.44
2022-08-04T10:39:43.286Z,996.49
2022-08-04T10:40:14.830Z,996.49
2022-08-04T10:41:14.641Z,996.48
2022-08-04T10:42:13.663Z,996.49
2022-08-04T10:43:20.700Z,996.47
2022-08-04T10:44:14.664Z,996.49
2022-08-04T10:45:13.625Z,996.51
2022-08-04T10:46:13.623Z,996.53
2022-08-04T10:47:13.630Z,996.52
2022-08-04T10:48:13.594Z,996.42
2022-08-04T10:49:13.564Z,996.48
2022-08-04T10:50:13.635Z,996.45
2022-08-04T10:51:13.545Z,996.40
2022-08-04T10:52:13.543Z,996.42
2022-08-04T10:53:13.516Z,996.38
2022-08-04T10:54:13.527Z,996.40
2022-08-04T10:55:13.497Z,996.42
2022-08-04T10:56:13.499Z,996.33
2022-08-04T10:57:13.616Z,996.40
2022-08-04T10:58:13.469Z,996.39
2022-08-04T10:59:13.450Z,996.39
2022-08-04T11:00:13.445Z,996.32
2022-08-04T11:01:13.429Z,996.31
2022-08-04T11:02:16.658Z,996.32
2022-08-04T11:03:14.437Z,996.35
2022-08-04T11:04:13.393Z,996.31
2022-08-04T11:05:13.372Z,996.28
2022-08-04T11:06:13.374Z,996.37
2022-08-04T11:07:13.351Z,996.34
2022-08-04T11:08:17.504Z,996.32
2022-08-04T11:09:15.115Z,996.35
2022-08-04T11:10:13.315Z,996.29
2022-08-04T11:11:13.315Z,996.28
2022-08-04T11:12:13.286Z,996.25
2022-08-04T11:13:30.046Z,996.27
2022-08-04T11:14:14.276Z,996.24
2022-08-04T11:15:13.255Z,996.20
2022-08-04T11:16:13.249Z,996.25
2022-08-04T11:17:13.239Z,996.16
2022-08-04T11:18:16.154Z,996.24
2022-08-04T11:19:13.202Z,996.22
2022-08-04T11:20:33.979Z,996.18
2022-08-04T11:21:14.192Z,996.23
2022-08-04T11:22:13.171Z,996.23
2022-08-04T11:23:13.156Z,996.27
2022-08-04T11:24:14.120Z,996.25
2022-08-04T11:25:13.129Z,996.26
2022-08-04T11:26:13.145Z,996.27
2022-08-04T11:27:14.128Z,996.19
2022-08-04T11:28:13.102Z,996.23
2022-08-04T11:29:13.083Z,996.22
2022-08-04T11:30:14.026Z,996.18
2022-08-04T11:31:13.069Z,996.18
2022-08-04T11:32:13.053Z,996.17
2022-08-04T11:33:13.036Z,996.18
2022-08-04T11:34:13.027Z,996.20
2022-08-04T11:35:13.010Z,996.22
2022-08-04T11:36:13.083Z,996.21
2022-08-04T11:37:14.203Z,996.18
2022-08-04T11:38:12.991Z,996.20
2022-08-04T11:39:13.049Z,996.10
2022-08-04T11:40:12.951Z,996.13
2022-08-04T11:41:12.961Z,996.10
2022-08-04T11:42:12.936Z,996.09
2022-08-04T11:43:12.921Z,996.12
2022-08-04T11:44:13.068Z,996.13
2022-08-04T11:45:12.894Z,996.14
2022-08-04T11:46:13.287Z,996.04
2022-08-04T11:47:12.966Z,996.13
2022-08-04T11:48:12.874Z,996.11
2022-08-04T11:49:12.842Z,996.08
2022-08-04T11:50:12.835Z,996.11
2022-08-04T11:51:12.836Z,996.14
2022-08-04T11:52:12.816Z,996.17
2022-08-04T11:53:13.817Z,996.20
2022-08-04T11:54:12.817Z,996.15
2022-08-04T11:55:12.777Z,996.10
2022-08-04T11:56:13.556Z,996.13
2022-08-04T11:57:13.805Z,996.12
2022-08-04T11:58:12.739Z,996.11
2022-08-04T11:59:12.722Z,996.03
2022-08-04T12:00:12.808Z,996.05
2022-08-04T12:01:12.711Z,996.06
2022-08-04T12:02:12.756Z,996.07
2022-08-04T12:03:13.448Z,996.08
2022-08-04T12:04:12.673Z,996.09
2022-08-04T12:05:32.838Z,996.17
2022-08-04T12:06:13.653Z,996.08
2022-08-04T12:08:13.624Z,996.09
2022-08-04T12:09:12.620Z,996.09
2022-08-04T12:10:12.607Z,996.08
2022-08-04T12:11:12.583Z,996.08
2022-08-04T12:12:12.576Z,996.11
2022-08-04T12:13:12.569Z,996.12
2022-08-04T12:14:12.554Z,996.11
2022-08-04T12:15:12.540Z,996.05
2022-08-04T12:16:12.526Z,996.00
2022-08-04T12:17:12.519Z,995.97
2022-08-04T12:18:12.608Z,995.98
2022-08-04T12:19:12.488Z,996.00
2022-08-04T12:20:38.244Z,996.03
2022-08-04T12:21:14.961Z,996.05
2022-08-04T12:22:12.463Z,996.03
2022-08-04T12:23:12.442Z,996.02
2022-08-04T12:24:12.434Z,996.00
2022-08-04T12:25:12.443Z,995.98
2022-08-04T12:26:12.424Z,995.94
2022-08-04T12:27:12.396Z,995.95
2022-08-04T12:28:12.385Z,995.97
2022-08-04T12:29:12.368Z,996.00
2022-08-04T12:31:01.293Z,995.94